Terminal Aerodrome Forecast
Issued by NWS Detroit/Pontiac, MI

Home | Current Version | Previous Version | Text Only | Print | Product List | Glossary On
Versions: 1 2 3 4 5 6 7 8 9 10 11 12 13 14 15 16 17
000
FTUS43 KDTX 211728
TAFFNT
TAF
KFNT 211728Z 2118/2218 16008KT P6SM BKN200
     FM212300 16005KT P6SM SCT050 BKN200
     FM220800 VRB03KT 3SM BR SCT060 BKN200
     FM221200 23003KT 3SM BR SCT250
     FM221500 21004KT P6SM SCT250=

USA.gov is the U.S. government's official web portal to all federal, state and local government web resources and services.